sensor_id;sensor_type;location;lat;lon;timestamp;temperature;humidity
8459;DHT22;4266;48.816;9.154;2022-08-11T00:01:18;18.70;49.00
8459;DHT22;4266;48.816;9.154;2022-08-11T00:03:46;18.50;48.50
8459;DHT22;4266;48.816;9.154;2022-08-11T00:06:10;18.50;48.50
8459;DHT22;4266;48.816;9.154;2022-08-11T00:08:37;18.70;49.00
8459;DHT22;4266;48.816;9.154;2022-08-11T00:11:04;18.60;48.80
8459;DHT22;4266;48.816;9.154;2022-08-11T00:13:32;18.80;49.00
8459;DHT22;4266;48.816;9.154;2022-08-11T00:15:57;18.60;49.40
8459;DHT22;4266;48.816;9.154;2022-08-11T00:18:22;18.50;49.70
8459;DHT22;4266;48.816;9.154;2022-08-11T00:20:48;18.60;50.90
8459;DHT22;4266;48.816;9.154;2022-08-11T00:23:15;18.40;50.00
8459;DHT22;4266;48.816;9.154;2022-08-11T00:25:41;18.50;51.40
8459;DHT22;4266;48.816;9.154;2022-08-11T00:30:44;18.60;51.80
8459;DHT22;4266;48.816;9.154;2022-08-11T00:33:09;18.90;50.70
8459;DHT22;4266;48.816;9.154;2022-08-11T00:35:35;18.60;51.80
8459;DHT22;4266;48.816;9.154;2022-08-11T00:38:01;18.50;50.80
8459;DHT22;4266;48.816;9.154;2022-08-11T00:40:29;18.50;51.30
8459;DHT22;4266;48.816;9.154;2022-08-11T00:43:00;18.70;51.90
8459;DHT22;4266;48.816;9.154;2022-08-11T00:45:31;18.70;51.70
8459;DHT22;4266;48.816;9.154;2022-08-11T00:47:58;18.70;51.60
8459;DHT22;4266;48.816;9.154;2022-08-11T00:53:22;19.10;51.30
8459;DHT22;4266;48.816;9.154;2022-08-11T00:55:47;18.60;52.50
8459;DHT22;4266;48.816;9.154;2022-08-11T00:58:46;18.50;50.90
8459;DHT22;4266;48.816;9.154;2022-08-11T01:01:04;18.60;52.90
8459;DHT22;4266;48.816;9.154;2022-08-11T01:03:33;18.60;52.50
8459;DHT22;4266;48.816;9.154;2022-08-11T01:11:45;18.50;52.50
8459;DHT22;4266;48.816;9.154;2022-08-11T01:14:28;18.50;52.50
8459;DHT22;4266;48.816;9.154;2022-08-11T01:17:03;18.50;52.70
8459;DHT22;4266;48.816;9.154;2022-08-11T01:22:22;17.80;51.20
8459;DHT22;4266;48.816;9.154;2022-08-11T01:24:58;17.90;51.90
8459;DHT22;4266;48.816;9.154;2022-08-11T01:33:30;18.50;53.60
8459;DHT22;4266;48.816;9.154;2022-08-11T01:38:40;17.60;53.20
8459;DHT22;4266;48.816;9.154;2022-08-11T01:44:28;18.20;53.50
8459;DHT22;4266;48.816;9.154;2022-08-11T01:47:45;18.30;53.80
8459;DHT22;4266;48.816;9.154;2022-08-11T01:50:03;18.30;53.80
8459;DHT22;4266;48.816;9.154;2022-08-11T01:52:27;17.60;53.80
8459;DHT22;4266;48.816;9.154;2022-08-11T01:54:55;17.80;54.30
8459;DHT22;4266;48.816;9.154;2022-08-11T01:57:33;18.30;55.50
8459;DHT22;4266;48.816;9.154;2022-08-11T02:00:05;18.60;54.40
8459;DHT22;4266;48.816;9.154;2022-08-11T02:02:35;18.10;54.10
8459;DHT22;4266;48.816;9.154;2022-08-11T02:05:04;18.00;54.00
8459;DHT22;4266;48.816;9.154;2022-08-11T02:07:38;17.70;55.40
8459;DHT22;4266;48.816;9.154;2022-08-11T02:10:11;18.20;54.60
8459;DHT22;4266;48.816;9.154;2022-08-11T02:12:43;18.20;55.50
8459;DHT22;4266;48.816;9.154;2022-08-11T02:15:26;18.20;55.00
8459;DHT22;4266;48.816;9.154;2022-08-11T02:18:07;18.20;55.00
8459;DHT22;4266;48.816;9.154;2022-08-11T02:24:00;17.70;54.10
8459;DHT22;4266;48.816;9.154;2022-08-11T02:26:15;17.40;53.90
8459;DHT22;4266;48.816;9.154;2022-08-11T02:31:41;18.00;56.00
8459;DHT22;4266;48.816;9.154;2022-08-11T02:36:48;18.00;54.20
8459;DHT22;4266;48.816;9.154;2022-08-11T02:39:10;17.80;53.90
8459;DHT22;4266;48.816;9.154;2022-08-11T02:42:15;17.60;54.50
8459;DHT22;4266;48.816;9.154;2022-08-11T02:44:43;17.40;54.70
8459;DHT22;4266;48.816;9.154;2022-08-11T02:47:10;17.00;55.50
8459;DHT22;4266;48.816;9.154;2022-08-11T02:49:47;17.10;57.20
8459;DHT22;4266;48.816;9.154;2022-08-11T02:52:22;17.40;56.20
8459;DHT22;4266;48.816;9.154;2022-08-11T02:55:26;18.00;56.30
8459;DHT22;4266;48.816;9.154;2022-08-11T02:57:54;18.00;56.30
8459;DHT22;4266;48.816;9.154;2022-08-11T03:00:17;17.60;56.00
8459;DHT22;4266;48.816;9.154;2022-08-11T03:03:09;17.70;57.00
8459;DHT22;4266;48.816;9.154;2022-08-11T03:08:53;18.10;56.90
8459;DHT22;4266;48.816;9.154;2022-08-11T03:14:28;17.60;56.40
8459;DHT22;4266;48.816;9.154;2022-08-11T03:17:02;17.90;56.90
8459;DHT22;4266;48.816;9.154;2022-08-11T03:19:35;18.30;57.20
8459;DHT22;4266;48.816;9.154;2022-08-11T03:22:08;18.30;56.70
8459;DHT22;4266;48.816;9.154;2022-08-11T03:24:48;17.80;56.80
8459;DHT22;4266;48.816;9.154;2022-08-11T03:27:20;17.50;57.10
8459;DHT22;4266;48.816;9.154;2022-08-11T03:29:43;17.40;57.40
8459;DHT22;4266;48.816;9.154;2022-08-11T03:32:25;17.40;57.30
8459;DHT22;4266;48.816;9.154;2022-08-11T03:34:49;16.80;58.20
8459;DHT22;4266;48.816;9.154;2022-08-11T03:37:50;17.60;58.70
8459;DHT22;4266;48.816;9.154;2022-08-11T03:40:12;17.90;58.60
8459;DHT22;4266;48.816;9.154;2022-08-11T03:42:44;17.80;58.40
8459;DHT22;4266;48.816;9.154;2022-08-11T03:45:34;17.90;57.60
8459;DHT22;4266;48.816;9.154;2022-08-11T03:50:55;18.10;58.20
8459;DHT22;4266;48.816;9.154;2022-08-11T03:56:38;18.00;57.70
8459;DHT22;4266;48.816;9.154;2022-08-11T03:58:49;17.80;58.20
8459;DHT22;4266;48.816;9.154;2022-08-11T04:02:03;17.80;58.20
8459;DHT22;4266;48.816;9.154;2022-08-11T04:04:48;17.70;58.10
8459;DHT22;4266;48.816;9.154;2022-08-11T04:07:01;17.10;57.90
8459;DHT22;4266;48.816;9.154;2022-08-11T04:09:39;16.70;59.80
8459;DHT22;4266;48.816;9.154;2022-08-11T04:14:54;17.60;61.00
8459;DHT22;4266;48.816;9.154;2022-08-11T04:23:22;17.50;58.60
8459;DHT22;4266;48.816;9.154;2022-08-11T04:26:29;17.80;60.50
8459;DHT22;4266;48.816;9.154;2022-08-11T04:31:23;18.10;58.60
8459;DHT22;4266;48.816;9.154;2022-08-11T04:33:56;18.20;58.90
8459;DHT22;4266;48.816;9.154;2022-08-11T04:36:36;18.20;58.70
8459;DHT22;4266;48.816;9.154;2022-08-11T04:39:14;18.30;59.00
8459;DHT22;4266;48.816;9.154;2022-08-11T04:47:30;18.50;59.60
8459;DHT22;4266;48.816;9.154;2022-08-11T04:49:59;18.40;58.30
8459;DHT22;4266;48.816;9.154;2022-08-11T04:56:13;18.80;58.20
8459;DHT22;4266;48.816;9.154;2022-08-11T05:04:31;19.50;58.20
8459;DHT22;4266;48.816;9.154;2022-08-11T05:07:37;20.00;57.30
8459;DHT22;4266;48.816;9.154;2022-08-11T05:10:02;19.30;57.70
8459;DHT22;4266;48.816;9.154;2022-08-11T05:12:33;20.20;57.30
8459;DHT22;4266;48.816;9.154;2022-08-11T05:14:56;20.50;57.30
8459;DHT22;4266;48.816;9.154;2022-08-11T05:17:35;20.40;57.30
8459;DHT22;4266;48.816;9.154;2022-08-11T05:20:16;21.10;57.30
8459;DHT22;4266;48.816;9.154;2022-08-11T05:22:49;21.10;57.10
8459;DHT22;4266;48.816;9.154;2022-08-11T05:25:23;21.20;56.70
8459;DHT22;4266;48.816;9.154;2022-08-11T05:27:58;21.20;57.00
8459;DHT22;4266;48.816;9.154;2022-08-11T05:30:28;21.50;56.30
8459;DHT22;4266;48.816;9.154;2022-08-11T05:33:05;21.50;56.30
8459;DHT22;4266;48.816;9.154;2022-08-11T05:35:40;21.40;56.10
8459;DHT22;4266;48.816;9.154;2022-08-11T05:38:04;21.40;56.10
8459;DHT22;4266;48.816;9.154;2022-08-11T05:40:35;21.40;56.10
8459;DHT22;4266;48.816;9.154;2022-08-11T05:43:10;22.00;55.80
8459;DHT22;4266;48.816;9.154;2022-08-11T05:45:40;21.90;55.70
8459;DHT22;4266;48.816;9.154;2022-08-11T05:48:12;22.20;55.60
8459;DHT22;4266;48.816;9.154;2022-08-11T05:50:52;22.10;55.60
8459;DHT22;4266;48.816;9.154;2022-08-11T05:53:23;22.80;55.30
8459;DHT22;4266;48.816;9.154;2022-08-11T05:55:55;23.20;54.90
8459;DHT22;4266;48.816;9.154;2022-08-11T05:58:32;23.40;54.50
8459;DHT22;4266;48.816;9.154;2022-08-11T06:00:57;23.80;54.30
8459;DHT22;4266;48.816;9.154;2022-08-11T06:03:25;23.40;53.60
8459;DHT22;4266;48.816;9.154;2022-08-11T06:05:51;23.90;53.70
8459;DHT22;4266;48.816;9.154;2022-08-11T06:08:16;23.90;53.70
8459;DHT22;4266;48.816;9.154;2022-08-11T06:10:42;24.40;53.10
8459;DHT22;4266;48.816;9.154;2022-08-11T06:13:08;25.10;53.10
8459;DHT22;4266;48.816;9.154;2022-08-11T06:15:42;25.30;52.10
8459;DHT22;4266;48.816;9.154;2022-08-11T06:17:59;25.50;52.10
8459;DHT22;4266;48.816;9.154;2022-08-11T06:20:25;25.30;50.60
8459;DHT22;4266;48.816;9.154;2022-08-11T06:22:55;25.40;50.50
8459;DHT22;4266;48.816;9.154;2022-08-11T06:25:19;25.40;50.30
8459;DHT22;4266;48.816;9.154;2022-08-11T06:27:45;25.80;50.30
8459;DHT22;4266;48.816;9.154;2022-08-11T06:30:11;25.70;50.60
8459;DHT22;4266;48.816;9.154;2022-08-11T06:32:40;26.30;50.50
8459;DHT22;4266;48.816;9.154;2022-08-11T06:35:16;26.30;49.80
8459;DHT22;4266;48.816;9.154;2022-08-11T06:37:51;26.20;49.30
8459;DHT22;4266;48.816;9.154;2022-08-11T06:40:20;25.50;49.90
8459;DHT22;4266;48.816;9.154;2022-08-11T06:42:52;26.10;49.40
8459;DHT22;4266;48.816;9.154;2022-08-11T06:45:56;25.40;49.30
8459;DHT22;4266;48.816;9.154;2022-08-11T06:48:20;25.70;49.00
8459;DHT22;4266;48.816;9.154;2022-08-11T06:51:02;26.20;49.60
8459;DHT22;4266;48.816;9.154;2022-08-11T06:53:33;26.20;49.10
8459;DHT22;4266;48.816;9.154;2022-08-11T06:55:59;25.90;49.00
8459;DHT22;4266;48.816;9.154;2022-08-11T06:58:36;26.20;49.00
8459;DHT22;4266;48.816;9.154;2022-08-11T07:01:11;26.50;48.40
8459;DHT22;4266;48.816;9.154;2022-08-11T07:03:38;26.50;48.40
8459;DHT22;4266;48.816;9.154;2022-08-11T07:06:16;26.30;48.10
8459;DHT22;4266;48.816;9.154;2022-08-11T07:08:53;26.00;48.20
8459;DHT22;4266;48.816;9.154;2022-08-11T07:12:27;26.00;48.20
8459;DHT22;4266;48.816;9.154;2022-08-11T07:14:04;26.40;48.30
8459;DHT22;4266;48.816;9.154;2022-08-11T07:16:36;26.60;48.20
8459;DHT22;4266;48.816;9.154;2022-08-11T07:19:03;26.40;48.00
8459;DHT22;4266;48.816;9.154;2022-08-11T07:21:34;26.10;48.20
8459;DHT22;4266;48.816;9.154;2022-08-11T07:24:08;26.10;48.10
8459;DHT22;4266;48.816;9.154;2022-08-11T07:26:37;26.10;48.70
8459;DHT22;4266;48.816;9.154;2022-08-11T07:29:11;27.00;48.80
8459;DHT22;4266;48.816;9.154;2022-08-11T07:31:37;27.00;48.70
8459;DHT22;4266;48.816;9.154;2022-08-11T07:34:08;26.90;48.00
8459;DHT22;4266;48.816;9.154;2022-08-11T07:36:30;26.90;48.10
8459;DHT22;4266;48.816;9.154;2022-08-11T07:38:56;27.10;48.20
8459;DHT22;4266;48.816;9.154;2022-08-11T07:41:22;27.70;48.40
8459;DHT22;4266;48.816;9.154;2022-08-11T07:43:49;27.70;48.40
8459;DHT22;4266;48.816;9.154;2022-08-11T07:46:14;27.80;48.00
8459;DHT22;4266;48.816;9.154;2022-08-11T07:48:45;28.10;47.90
8459;DHT22;4266;48.816;9.154;2022-08-11T07:51:18;28.00;48.00
8459;DHT22;4266;48.816;9.154;2022-08-11T07:53:50;27.80;47.40
8459;DHT22;4266;48.816;9.154;2022-08-11T07:56:16;28.10;47.70
8459;DHT22;4266;48.816;9.154;2022-08-11T07:58:41;28.10;47.70
8459;DHT22;4266;48.816;9.154;2022-08-11T08:01:17;28.20;47.10
8459;DHT22;4266;48.816;9.154;2022-08-11T08:03:49;27.90;46.90
8459;DHT22;4266;48.816;9.154;2022-08-11T08:06:20;27.90;46.90
8459;DHT22;4266;48.816;9.154;2022-08-11T08:08:54;28.20;46.80
8459;DHT22;4266;48.816;9.154;2022-08-11T08:11:25;28.10;46.70
8459;DHT22;4266;48.816;9.154;2022-08-11T08:13:57;28.20;46.60
8459;DHT22;4266;48.816;9.154;2022-08-11T08:16:29;28.20;46.60
8459;DHT22;4266;48.816;9.154;2022-08-11T08:19:01;28.30;47.10
8459;DHT22;4266;48.816;9.154;2022-08-11T08:21:26;28.70;46.70
8459;DHT22;4266;48.816;9.154;2022-08-11T08:23:52;28.30;45.90
8459;DHT22;4266;48.816;9.154;2022-08-11T08:26:18;29.10;46.80
8459;DHT22;4266;48.816;9.154;2022-08-11T08:28:51;29.30;46.70
8459;DHT22;4266;48.816;9.154;2022-08-11T08:31:17;29.20;46.60
8459;DHT22;4266;48.816;9.154;2022-08-11T08:33:43;29.90;47.00
8459;DHT22;4266;48.816;9.154;2022-08-11T08:36:08;29.50;46.00
8459;DHT22;4266;48.816;9.154;2022-08-11T08:38:41;29.50;46.80
8459;DHT22;4266;48.816;9.154;2022-08-11T08:41:07;29.60;46.30
8459;DHT22;4266;48.816;9.154;2022-08-11T08:43:32;29.60;46.30
8459;DHT22;4266;48.816;9.154;2022-08-11T08:46:00;29.80;46.00
8459;DHT22;4266;48.816;9.154;2022-08-11T08:48:26;29.80;46.00
8459;DHT22;4266;48.816;9.154;2022-08-11T08:50:54;29.90;46.30
8459;DHT22;4266;48.816;9.154;2022-08-11T08:53:25;30.30;45.80
8459;DHT22;4266;48.816;9.154;2022-08-11T08:55:51;30.40;46.10
8459;DHT22;4266;48.816;9.154;2022-08-11T08:58:18;30.30;44.60
8459;DHT22;4266;48.816;9.154;2022-08-11T09:00:44;30.40;44.60
8459;DHT22;4266;48.816;9.154;2022-08-11T09:03:09;29.60;44.40
8459;DHT22;4266;48.816;9.154;2022-08-11T09:05:36;29.20;44.20
8459;DHT22;4266;48.816;9.154;2022-08-11T09:08:02;29.20;44.10
8459;DHT22;4266;48.816;9.154;2022-08-11T09:10:28;29.60;44.70
8459;DHT22;4266;48.816;9.154;2022-08-11T09:12:54;29.00;43.80
8459;DHT22;4266;48.816;9.154;2022-08-11T09:15:20;28.90;43.70
8459;DHT22;4266;48.816;9.154;2022-08-11T09:17:48;29.00;43.20
8459;DHT22;4266;48.816;9.154;2022-08-11T09:20:24;29.00;43.00
8459;DHT22;4266;48.816;9.154;2022-08-11T09:22:50;28.90;42.90
8459;DHT22;4266;48.816;9.154;2022-08-11T09:25:21;28.50;43.30
8459;DHT22;4266;48.816;9.154;2022-08-11T09:27:53;28.80;43.20
8459;DHT22;4266;48.816;9.154;2022-08-11T09:30:19;28.60;43.00
8459;DHT22;4266;48.816;9.154;2022-08-11T09:32:44;28.50;43.10
8459;DHT22;4266;48.816;9.154;2022-08-11T09:35:10;28.60;43.00
8459;DHT22;4266;48.816;9.154;2022-08-11T09:37:36;28.60;42.60
8459;DHT22;4266;48.816;9.154;2022-08-11T09:40:09;28.30;42.50
8459;DHT22;4266;48.816;9.154;2022-08-11T09:42:41;28.20;42.40
8459;DHT22;4266;48.816;9.154;2022-08-11T09:45:12;28.70;42.10
8459;DHT22;4266;48.816;9.154;2022-08-11T09:47:38;29.00;42.20
8459;DHT22;4266;48.816;9.154;2022-08-11T09:50:05;28.90;42.60
8459;DHT22;4266;48.816;9.154;2022-08-11T09:52:34;29.00;42.50
8459;DHT22;4266;48.816;9.154;2022-08-11T09:54:57;28.70;42.70
8459;DHT22;4266;48.816;9.154;2022-08-11T09:57:23;28.80;42.90
8459;DHT22;4266;48.816;9.154;2022-08-11T09:59:55;28.60;42.10
8459;DHT22;4266;48.816;9.154;2022-08-11T10:02:22;28.80;41.40
8459;DHT22;4266;48.816;9.154;2022-08-11T10:04:48;28.50;41.70
8459;DHT22;4266;48.816;9.154;2022-08-11T10:07:14;28.50;41.70
8459;DHT22;4266;48.816;9.154;2022-08-11T10:09:48;28.80;41.40
8459;DHT22;4266;48.816;9.154;2022-08-11T10:12:17;28.70;41.20
8459;DHT22;4266;48.816;9.154;2022-08-11T10:14:41;28.60;41.20
8459;DHT22;4266;48.816;9.154;2022-08-11T10:17:11;28.30;41.30
8459;DHT22;4266;48.816;9.154;2022-08-11T10:19:37;28.40;41.70
8459;DHT22;4266;48.816;9.154;2022-08-11T10:22:03;28.50;41.40
8459;DHT22;4266;48.816;9.154;2022-08-11T10:24:35;28.50;41.40
8459;DHT22;4266;48.816;9.154;2022-08-11T10:27:07;28.70;41.70
8459;DHT22;4266;48.816;9.154;2022-08-11T10:29:35;28.70;41.70
8459;DHT22;4266;48.816;9.154;2022-08-11T10:32:06;28.80;41.10
8459;DHT22;4266;48.816;9.154;2022-08-11T10:34:38;28.40;40.90
8459;DHT22;4266;48.816;9.154;2022-08-11T10:37:03;28.30;40.90
8459;DHT22;4266;48.816;9.154;2022-08-11T10:39:29;28.70;41.70
8459;DHT22;4266;48.816;9.154;2022-08-11T10:41:55;28.60;40.80
8459;DHT22;4266;48.816;9.154;2022-08-11T10:44:28;29.10;40.80
8459;DHT22;4266;48.816;9.154;2022-08-11T10:46:53;29.30;40.60
8459;DHT22;4266;48.816;9.154;2022-08-11T10:49:26;29.00;40.80
8459;DHT22;4266;48.816;9.154;2022-08-11T10:51:54;29.40;41.60
8459;DHT22;4266;48.816;9.154;2022-08-11T10:54:25;29.30;41.60
8459;DHT22;4266;48.816;9.154;2022-08-11T10:56:56;29.80;40.80
8459;DHT22;4266;48.816;9.154;2022-08-11T10:59:28;29.40;40.50
8459;DHT22;4266;48.816;9.154;2022-08-11T11:01:54;29.70;41.00
8459;DHT22;4266;48.816;9.154;2022-08-11T11:04:22;29.60;40.10
8459;DHT22;4266;48.816;9.154;2022-08-11T11:06:55;29.60;40.40
8459;DHT22;4266;48.816;9.154;2022-08-11T11:09:19;29.10;40.70
8459;DHT22;4266;48.816;9.154;2022-08-11T11:11:49;29.00;40.90
8459;DHT22;4266;48.816;9.154;2022-08-11T11:14:19;29.60;41.00
8459;DHT22;4266;48.816;9.154;2022-08-11T11:16:51;29.50;41.10
8459;DHT22;4266;48.816;9.154;2022-08-11T11:19:24;30.00;41.00
8459;DHT22;4266;48.816;9.154;2022-08-11T11:21:51;30.00;41.00
8459;DHT22;4266;48.816;9.154;2022-08-11T11:24:29;29.00;39.60
8459;DHT22;4266;48.816;9.154;2022-08-11T11:26:57;29.00;40.00
8459;DHT22;4266;48.816;9.154;2022-08-11T11:29:35;29.00;39.80
8459;DHT22;4266;48.816;9.154;2022-08-11T11:32:05;29.00;40.20
8459;DHT22;4266;48.816;9.154;2022-08-11T11:34:36;29.00;40.20
8459;DHT22;4266;48.816;9.154;2022-08-11T11:36:57;29.00;40.10
8459;DHT22;4266;48.816;9.154;2022-08-11T11:39:26;29.90;40.20
8459;DHT22;4266;48.816;9.154;2022-08-11T11:41:51;29.90;40.20
8459;DHT22;4266;48.816;9.154;2022-08-11T11:44:16;29.30;39.60
8459;DHT22;4266;48.816;9.154;2022-08-11T11:46:42;28.80;39.70
8459;DHT22;4266;48.816;9.154;2022-08-11T11:49:07;29.00;40.10
8459;DHT22;4266;48.816;9.154;2022-08-11T11:51:35;29.30;39.80
8459;DHT22;4266;48.816;9.154;2022-08-11T11:54:00;29.30;39.80
8459;DHT22;4266;48.816;9.154;2022-08-11T11:56:26;29.30;39.80
8459;DHT22;4266;48.816;9.154;2022-08-11T11:58:52;29.60;39.80
8459;DHT22;4266;48.816;9.154;2022-08-11T12:01:24;29.50;39.80
8459;DHT22;4266;48.816;9.154;2022-08-11T12:03:50;29.20;39.60
8459;DHT22;4266;48.816;9.154;2022-08-11T12:06:16;29.00;39.80
8459;DHT22;4266;48.816;9.154;2022-08-11T12:08:42;29.40;40.10
8459;DHT22;4266;48.816;9.154;2022-08-11T12:11:09;29.40;40.10
8459;DHT22;4266;48.816;9.154;2022-08-11T12:13:42;29.40;39.20
8459;DHT22;4266;48.816;9.154;2022-08-11T12:16:08;29.70;39.50
8459;DHT22;4266;48.816;9.154;2022-08-11T12:18:34;29.60;39.30
8459;DHT22;4266;48.816;9.154;2022-08-11T12:21:01;29.60;39.20
8459;DHT22;4266;48.816;9.154;2022-08-11T12:23:26;29.50;39.10
8459;DHT22;4266;48.816;9.154;2022-08-11T12:25:58;29.60;39.30
8459;DHT22;4266;48.816;9.154;2022-08-11T12:28:30;29.30;39.30
8459;DHT22;4266;48.816;9.154;2022-08-11T12:30:56;29.30;39.30
8459;DHT22;4266;48.816;9.154;2022-08-11T12:33:22;29.50;39.30
8459;DHT22;4266;48.816;9.154;2022-08-11T12:35:51;29.10;39.10
8459;DHT22;4266;48.816;9.154;2022-08-11T12:38:13;29.00;39.10
8459;DHT22;4266;48.816;9.154;2022-08-11T12:40:39;29.00;38.60
8459;DHT22;4266;48.816;9.154;2022-08-11T12:43:15;28.90;38.40
8459;DHT22;4266;48.816;9.154;2022-08-11T12:45:46;28.90;38.60
8459;DHT22;4266;48.816;9.154;2022-08-11T12:48:14;29.30;39.20
8459;DHT22;4266;48.816;9.154;2022-08-11T12:50:44;29.50;38.80
8459;DHT22;4266;48.816;9.154;2022-08-11T12:53:15;29.60;39.80
8459;DHT22;4266;48.816;9.154;2022-08-11T12:55:41;29.90;39.60
8459;DHT22;4266;48.816;9.154;2022-08-11T12:58:14;29.50;38.60
8459;DHT22;4266;48.816;9.154;2022-08-11T13:00:43;29.40;38.50
8459;DHT22;4266;48.816;9.154;2022-08-11T13:03:14;29.40;37.80
8459;DHT22;4266;48.816;9.154;2022-08-11T13:05:45;29.40;37.80
8459;DHT22;4266;48.816;9.154;2022-08-11T13:08:12;29.10;37.60
8459;DHT22;4266;48.816;9.154;2022-08-11T13:10:40;29.00;38.10
8459;DHT22;4266;48.816;9.154;2022-08-11T13:13:12;29.00;38.10
8459;DHT22;4266;48.816;9.154;2022-08-11T13:15:38;29.00;37.80
8459;DHT22;4266;48.816;9.154;2022-08-11T13:18:04;28.90;37.70
8459;DHT22;4266;48.816;9.154;2022-08-11T13:20:30;28.60;38.00
8459;DHT22;4266;48.816;9.154;2022-08-11T13:22:56;28.60;38.10
8459;DHT22;4266;48.816;9.154;2022-08-11T13:25:22;29.00;38.20
8459;DHT22;4266;48.816;9.154;2022-08-11T13:27:48;28.90;38.00
8459;DHT22;4266;48.816;9.154;2022-08-11T13:30:13;28.80;38.30
8459;DHT22;4266;48.816;9.154;2022-08-11T13:32:45;29.10;37.80
8459;DHT22;4266;48.816;9.154;2022-08-11T13:35:11;28.90;37.90
8459;DHT22;4266;48.816;9.154;2022-08-11T13:37:36;28.80;38.30
8459;DHT22;4266;48.816;9.154;2022-08-11T13:40:03;29.10;38.60
8459;DHT22;4266;48.816;9.154;2022-08-11T13:42:29;29.40;38.50
8459;DHT22;4266;48.816;9.154;2022-08-11T13:44:56;29.70;38.30
8459;DHT22;4266;48.816;9.154;2022-08-11T13:47:21;29.70;38.30
8459;DHT22;4266;48.816;9.154;2022-08-11T13:49:47;29.50;37.80
8459;DHT22;4266;48.816;9.154;2022-08-11T13:52:14;29.20;37.70
8459;DHT22;4266;48.816;9.154;2022-08-11T13:54:40;29.20;37.50
8459;DHT22;4266;48.816;9.154;2022-08-11T13:57:06;28.90;37.30
8459;DHT22;4266;48.816;9.154;2022-08-11T13:59:31;28.90;37.30
8459;DHT22;4266;48.816;9.154;2022-08-11T14:02:01;28.80;37.00
8459;DHT22;4266;48.816;9.154;2022-08-11T14:04:27;28.70;37.00
8459;DHT22;4266;48.816;9.154;2022-08-11T14:06:51;28.60;36.70
8459;DHT22;4266;48.816;9.154;2022-08-11T14:09:18;28.60;36.90
8459;DHT22;4266;48.816;9.154;2022-08-11T14:11:42;28.70;37.10
8459;DHT22;4266;48.816;9.154;2022-08-11T14:14:22;28.60;36.90
8459;DHT22;4266;48.816;9.154;2022-08-11T14:16:40;28.80;37.50
8459;DHT22;4266;48.816;9.154;2022-08-11T14:19:06;28.80;37.30
8459;DHT22;4266;48.816;9.154;2022-08-11T14:21:35;29.00;37.30
8459;DHT22;4266;48.816;9.154;2022-08-11T14:24:04;28.90;37.30
8459;DHT22;4266;48.816;9.154;2022-08-11T14:26:30;28.80;36.90
8459;DHT22;4266;48.816;9.154;2022-08-11T14:29:00;28.80;37.10
8459;DHT22;4266;48.816;9.154;2022-08-11T14:31:26;28.80;37.10
8459;DHT22;4266;48.816;9.154;2022-08-11T14:33:54;28.90;37.40
8459;DHT22;4266;48.816;9.154;2022-08-11T14:36:19;28.80;37.00
8459;DHT22;4266;48.816;9.154;2022-08-11T14:38:45;28.80;37.20
8459;DHT22;4266;48.816;9.154;2022-08-11T14:41:11;28.80;36.90
8459;DHT22;4266;48.816;9.154;2022-08-11T14:43:44;28.70;36.40
8459;DHT22;4266;48.816;9.154;2022-08-11T14:46:17;28.90;36.50
8459;DHT22;4266;48.816;9.154;2022-08-11T14:48:49;28.90;36.50
8459;DHT22;4266;48.816;9.154;2022-08-11T14:51:14;28.80;36.70
8459;DHT22;4266;48.816;9.154;2022-08-11T14:53:40;28.80;36.50
8459;DHT22;4266;48.816;9.154;2022-08-11T14:56:07;28.80;36.80
8459;DHT22;4266;48.816;9.154;2022-08-11T14:58:40;28.90;37.20
8459;DHT22;4266;48.816;9.154;2022-08-11T15:01:05;28.90;37.20
8459;DHT22;4266;48.816;9.154;2022-08-11T15:03:31;29.00;37.10
8459;DHT22;4266;48.816;9.154;2022-08-11T15:05:58;28.90;37.10
8459;DHT22;4266;48.816;9.154;2022-08-11T15:08:23;29.10;37.20
8459;DHT22;4266;48.816;9.154;2022-08-11T15:10:48;29.20;36.90
8459;DHT22;4266;48.816;9.154;2022-08-11T15:13:15;29.10;36.90
8459;DHT22;4266;48.816;9.154;2022-08-11T15:15:41;29.00;36.80
8459;DHT22;4266;48.816;9.154;2022-08-11T15:18:12;29.00;37.00
8459;DHT22;4266;48.816;9.154;2022-08-11T15:20:39;29.10;36.60
8459;DHT22;4266;48.816;9.154;2022-08-11T15:23:11;28.80;36.60
8459;DHT22;4266;48.816;9.154;2022-08-11T15:25:45;29.00;36.50
8459;DHT22;4266;48.816;9.154;2022-08-11T15:28:09;28.90;36.50
8459;DHT22;4266;48.816;9.154;2022-08-11T15:30:41;29.00;36.40
8459;DHT22;4266;48.816;9.154;2022-08-11T15:33:13;28.90;36.50
8459;DHT22;4266;48.816;9.154;2022-08-11T15:35:45;28.90;36.50
8459;DHT22;4266;48.816;9.154;2022-08-11T15:38:17;28.70;36.40
8459;DHT22;4266;48.816;9.154;2022-08-11T15:40:43;28.70;36.30
8459;DHT22;4266;48.816;9.154;2022-08-11T15:43:18;28.60;36.00
8459;DHT22;4266;48.816;9.154;2022-08-11T15:45:49;28.70;36.70
8459;DHT22;4266;48.816;9.154;2022-08-11T15:48:15;28.80;36.50
8459;DHT22;4266;48.816;9.154;2022-08-11T15:50:41;28.70;36.60
8459;DHT22;4266;48.816;9.154;2022-08-11T15:53:10;28.70;36.30
8459;DHT22;4266;48.816;9.154;2022-08-11T15:55:34;28.60;36.70
8459;DHT22;4266;48.816;9.154;2022-08-11T15:58:01;28.60;36.50
8459;DHT22;4266;48.816;9.154;2022-08-11T16:00:33;28.60;36.50
8459;DHT22;4266;48.816;9.154;2022-08-11T16:03:05;28.40;36.40
8459;DHT22;4266;48.816;9.154;2022-08-11T16:05:38;28.80;36.90
8459;DHT22;4266;48.816;9.154;2022-08-11T16:08:04;28.60;36.70
8459;DHT22;4266;48.816;9.154;2022-08-11T16:10:31;28.40;36.60
8459;DHT22;4266;48.816;9.154;2022-08-11T16:12:59;28.40;36.60
8459;DHT22;4266;48.816;9.154;2022-08-11T16:15:46;28.50;36.50
8459;DHT22;4266;48.816;9.154;2022-08-11T16:18:18;28.80;36.80
8459;DHT22;4266;48.816;9.154;2022-08-11T16:20:42;28.90;36.80
8459;DHT22;4266;48.816;9.154;2022-08-11T16:23:08;28.90;36.80
8459;DHT22;4266;48.816;9.154;2022-08-11T16:25:35;29.00;36.70
8459;DHT22;4266;48.816;9.154;2022-08-11T16:28:02;28.90;36.70
8459;DHT22;4266;48.816;9.154;2022-08-11T16:30:29;29.10;36.70
8459;DHT22;4266;48.816;9.154;2022-08-11T16:32:56;29.20;37.00
8459;DHT22;4266;48.816;9.154;2022-08-11T16:35:23;29.30;36.70
8459;DHT22;4266;48.816;9.154;2022-08-11T16:37:56;28.30;36.60
8459;DHT22;4266;48.816;9.154;2022-08-11T16:40:30;28.20;37.30
8459;DHT22;4266;48.816;9.154;2022-08-11T16:42:55;28.10;36.90
8459;DHT22;4266;48.816;9.154;2022-08-11T16:45:27;28.10;37.00
8459;DHT22;4266;48.816;9.154;2022-08-11T16:48:00;27.90;36.70
8459;DHT22;4266;48.816;9.154;2022-08-11T16:50:25;28.30;36.80
8459;DHT22;4266;48.816;9.154;2022-08-11T16:52:52;27.90;36.60
8459;DHT22;4266;48.816;9.154;2022-08-11T16:55:18;27.90;36.60
8459;DHT22;4266;48.816;9.154;2022-08-11T16:57:43;27.90;36.80
8459;DHT22;4266;48.816;9.154;2022-08-11T17:00:17;28.10;36.90
8459;DHT22;4266;48.816;9.154;2022-08-11T17:02:44;28.10;36.90
8459;DHT22;4266;48.816;9.154;2022-08-11T17:05:16;27.80;36.80
8459;DHT22;4266;48.816;9.154;2022-08-11T17:07:47;27.70;36.60
8459;DHT22;4266;48.816;9.154;2022-08-11T17:10:24;27.60;36.80
8459;DHT22;4266;48.816;9.154;2022-08-11T17:12:54;27.60;36.80
8459;DHT22;4266;48.816;9.154;2022-08-11T17:15:26;27.80;37.20
8459;DHT22;4266;48.816;9.154;2022-08-11T17:18:07;27.90;36.90
8459;DHT22;4266;48.816;9.154;2022-08-11T17:20:33;28.00;36.70
8459;DHT22;4266;48.816;9.154;2022-08-11T17:22:59;27.60;37.00
8459;DHT22;4266;48.816;9.154;2022-08-11T17:25:30;27.80;37.00
8459;DHT22;4266;48.816;9.154;2022-08-11T17:27:58;27.30;37.20
8459;DHT22;4266;48.816;9.154;2022-08-11T17:30:23;27.30;37.10
8459;DHT22;4266;48.816;9.154;2022-08-11T17:32:49;27.30;37.20